createdAt,value
2022-08-30T00:03:10.835Z,33.6
2022-08-30T00:08:11.284Z,33.5
2022-08-30T00:13:11.495Z,33.5
2022-08-30T00:18:11.714Z,33.5
2022-08-30T00:23:12.112Z,33.4
2022-08-30T00:28:13.171Z,33.4
2022-08-30T00:33:13.429Z,33.4
2022-08-30T00:38:13.673Z,33.4
2022-08-30T00:43:14.214Z,33.3
2022-08-30T00:48:14.510Z,33.3
2022-08-30T00:53:14.723Z,33.3
2022-08-30T00:58:14.949Z,33.2
2022-08-30T01:03:15.435Z,33.2
2022-08-30T01:08:15.761Z,33.2
2022-08-30T01:13:16.058Z,33.2
2022-08-30T01:18:16.471Z,33.2
2022-08-30T01:23:18.202Z,33.1
2022-08-30T01:28:18.600Z,33.1
2022-08-30T01:33:18.791Z,33.1
2022-08-30T01:38:18.996Z,33.1
2022-08-30T01:43:19.309Z,33.1
2022-08-30T01:48:19.601Z,33.1
2022-08-30T01:53:19.812Z,33.1
2022-08-30T01:58:20.006Z,33
2022-08-30T02:03:20.222Z,33
2022-08-30T02:08:20.444Z,33
2022-08-30T02:13:20.642Z,32.9
2022-08-30T02:18:20.878Z,32.9
2022-08-30T02:23:21.082Z,32.9
2022-08-30T02:28:21.308Z,32.9
2022-08-30T02:33:24.986Z,32.9
2022-08-30T02:38:25.188Z,32.9
2022-08-30T02:43:25.392Z,32.8
2022-08-30T02:48:25.584Z,32.8
2022-08-30T02:53:25.775Z,32.8
2022-08-30T02:58:27.267Z,32.7
2022-08-30T03:03:27.493Z,32.7
2022-08-30T03:08:27.718Z,32.7
2022-08-30T03:13:27.907Z,32.7
2022-08-30T03:18:28.099Z,32.7
2022-08-30T03:23:28.315Z,32.7
2022-08-30T03:28:29.387Z,32.7
2022-08-30T03:33:29.574Z,32.6
2022-08-30T03:38:31.275Z,32.6
2022-08-30T03:43:31.520Z,32.6
2022-08-30T03:48:31.712Z,32.6
2022-08-30T03:53:31.888Z,32.6
2022-08-30T03:58:32.094Z,32.6
2022-08-30T04:03:32.290Z,32.6
2022-08-30T04:08:32.518Z,32.6
2022-08-30T04:13:32.688Z,32.5
2022-08-30T04:18:32.897Z,32.5
2022-08-30T04:23:33.062Z,32.5
2022-08-30T04:28:33.266Z,32.5
2022-08-30T04:33:33.487Z,32.4
2022-08-30T04:38:35.425Z,32.4
2022-08-30T04:43:35.597Z,32.4
2022-08-30T04:48:35.823Z,32.4
2022-08-30T04:53:36.012Z,32.4
2022-08-30T04:58:36.411Z,32.4
2022-08-30T05:03:36.575Z,32.4
2022-08-30T05:08:36.751Z,32.4
2022-08-30T05:13:37.116Z,32.3
2022-08-30T05:18:37.321Z,32.3
2022-08-30T05:23:37.506Z,32.3
2022-08-30T05:28:37.927Z,32.3
2022-08-30T05:33:38.366Z,32.3
2022-08-30T05:38:39.096Z,32.2
2022-08-30T05:43:39.269Z,32.2
2022-08-30T05:48:39.486Z,32.2
2022-08-30T05:53:39.684Z,32.2
2022-08-30T05:58:39.857Z,32.2
2022-08-30T06:03:40.059Z,32.2
2022-08-30T06:08:40.232Z,32.2
2022-08-30T06:13:40.442Z,32.2
2022-08-30T06:18:40.640Z,32.1
2022-08-30T06:23:40.815Z,32.1
2022-08-30T06:28:40.996Z,32.1
2022-08-30T06:33:41.176Z,32.1
2022-08-30T06:38:41.400Z,32.1
2022-08-30T06:43:44.435Z,32.1
2022-08-30T06:48:48.217Z,32.1
2022-08-30T06:53:48.858Z,32.1
2022-08-30T06:58:49.362Z,32.1
2022-08-30T07:03:49.539Z,32
2022-08-30T07:08:49.745Z,32
2022-08-30T07:13:56.450Z,32
2022-08-30T07:18:56.655Z,32
2022-08-30T07:23:56.840Z,32
2022-08-30T07:28:57.036Z,31.9
2022-08-30T07:33:58.905Z,31.9
2022-08-30T07:38:59.074Z,31.9
2022-08-30T07:43:59.240Z,31.9
2022-08-30T07:48:59.390Z,31.9
2022-08-30T07:54:01.226Z,31.9
2022-08-30T07:59:03.027Z,31.9
2022-08-30T08:04:05.084Z,31.9
2022-08-30T08:09:05.242Z,31.9
2022-08-30T08:14:05.520Z,31.9
2022-08-30T08:19:07.495Z,31.9
2022-08-30T08:24:09.285Z,31.8
2022-08-30T08:29:09.438Z,31.8
2022-08-30T08:34:09.639Z,31.8
2022-08-30T08:39:11.455Z,31.8
2022-08-30T08:44:13.292Z,31.8
2022-08-30T08:49:15.106Z,31.8
2022-08-30T08:54:16.896Z,31.8
2022-08-30T08:59:17.067Z,31.8
2022-08-30T09:04:20.321Z,31.8
2022-08-30T09:09:22.512Z,31.8
2022-08-30T09:14:24.356Z,31.8
2022-08-30T09:19:34.402Z,31.7
2022-08-30T09:24:36.538Z,31.7
2022-08-30T09:29:39.949Z,31.7
2022-08-30T09:34:41.990Z,31.7
2022-08-30T09:39:46.200Z,31.7
2022-08-30T09:44:48.028Z,31.7
2022-08-30T09:49:50.098Z,31.6
2022-08-30T09:54:51.909Z,31.6
2022-08-30T09:59:53.710Z,31.6
2022-08-30T10:04:53.952Z,31.6
2022-08-30T10:09:55.758Z,31.6
2022-08-30T10:14:57.579Z,31.6
2022-08-30T10:19:59.395Z,31.6
2022-08-30T10:25:01.185Z,31.6
2022-08-30T10:30:02.996Z,31.6
2022-08-30T10:35:04.802Z,31.6
2022-08-30T10:40:06.669Z,31.6
2022-08-30T10:45:08.521Z,31.6
2022-08-30T10:50:10.633Z,31.6
2022-08-30T10:55:12.606Z,31.5
2022-08-30T11:00:14.411Z,31.5
2022-08-30T11:05:16.223Z,31.5
2022-08-30T11:10:18.900Z,31.5
2022-08-30T11:15:21.394Z,31.5
2022-08-30T11:20:23.370Z,31.4
2022-08-30T11:25:25.191Z,31.4
2022-08-30T11:47:41.115Z,31.4
2022-08-30T11:52:42.924Z,31.4
2022-08-30T11:57:44.922Z,31.4
2022-08-30T12:02:47.916Z,31.4
2022-08-30T12:07:49.043Z,31.4
2022-08-30T12:12:51.009Z,31.4
2022-08-30T12:17:52.867Z,31.4
2022-08-30T12:22:55.478Z,31.4
2022-08-30T12:27:57.263Z,33.1
2022-08-30T12:33:01.976Z,35.8
2022-08-30T12:38:03.400Z,37.8
2022-08-30T12:43:04.861Z,40.2
2022-08-30T12:48:05.744Z,42.1
2022-08-30T12:53:10.501Z,43.4
2022-08-30T12:58:13.594Z,43.7
2022-08-30T13:03:14.850Z,43.7
2022-08-30T13:08:17.042Z,43.7
2022-08-30T13:13:18.804Z,43.7
2022-08-30T13:18:27.132Z,43.7
2022-08-30T13:23:28.038Z,43.7
2022-08-30T13:28:28.544Z,43.7
2022-08-30T13:33:30.075Z,43.7
2022-08-30T13:38:30.580Z,43.6
2022-08-30T13:43:31.177Z,43.6
2022-08-30T13:49:42.905Z,43.6
2022-08-30T13:54:43.834Z,43.6
2022-08-30T13:59:44.392Z,43.6
2022-08-30T14:04:51.708Z,43.5
2022-08-30T14:09:53.188Z,43.5
2022-08-30T14:14:57.567Z,43.4
2022-08-30T14:19:59.513Z,43.4
2022-08-30T14:25:00.002Z,43.4
2022-08-30T14:30:00.516Z,43.4
2022-08-30T14:35:01.204Z,43.4
2022-08-30T14:40:01.775Z,43.4
2022-08-30T14:45:03.623Z,43.3
2022-08-30T14:50:04.186Z,43.3
2022-08-30T14:55:08.748Z,43.3
2022-08-30T15:00:10.169Z,43.3
2022-08-30T15:05:10.687Z,43.3
2022-08-30T15:10:11.219Z,43.2
2022-08-30T15:15:11.740Z,43.2
2022-08-30T15:20:12.224Z,43.2
2022-08-30T15:25:12.745Z,43.1
2022-08-30T15:30:13.276Z,43.1
2022-08-30T15:35:15.333Z,43.1
2022-08-30T15:40:17.116Z,43.1
2022-08-30T15:45:17.857Z,43.1
2022-08-30T15:50:18.525Z,43
2022-08-30T15:55:19.265Z,43
2022-08-30T16:00:19.791Z,43
2022-08-30T16:05:20.470Z,42.9
2022-08-30T16:10:20.985Z,42.9
2022-08-30T16:15:21.547Z,42.9
2022-08-30T16:20:22.261Z,42.9
2022-08-30T16:25:22.990Z,42.9
2022-08-30T16:30:24.198Z,42.8
2022-08-30T16:35:24.740Z,42.8
2022-08-30T16:40:25.300Z,42.7
2022-08-30T16:45:29.646Z,42.8
2022-08-30T16:50:31.873Z,43.4
2022-08-30T16:55:32.831Z,43.5
2022-08-30T17:00:33.417Z,43.4
2022-08-30T17:05:34.104Z,43.5
2022-08-30T17:10:34.645Z,43.6
2022-08-30T17:15:35.907Z,43.6
2022-08-30T17:20:36.505Z,44
2022-08-30T17:25:37.752Z,44.1
2022-08-30T17:30:38.292Z,44.1
2022-08-30T17:35:40.711Z,44
2022-08-30T17:40:41.246Z,44
2022-08-30T17:45:42.135Z,44
2022-08-30T17:50:42.679Z,43.9
2022-08-30T17:55:43.198Z,43.9
2022-08-30T18:00:43.983Z,43.9
2022-08-30T18:05:44.584Z,43.9
2022-08-30T18:10:47.737Z,43.8
2022-08-30T18:15:50.636Z,43.8
2022-08-30T18:20:51.314Z,43.7
2022-08-30T18:25:52.031Z,43.7
2022-08-30T18:30:52.959Z,43.7
2022-08-30T18:35:54.148Z,43.6
2022-08-30T18:40:54.743Z,43.6
2022-08-30T18:45:55.321Z,43.6
2022-08-30T18:50:55.877Z,43.6
2022-08-30T18:55:56.440Z,43.5
2022-08-30T19:00:57.142Z,43.4
2022-08-30T19:05:57.774Z,43.4
2022-08-30T19:11:04.938Z,43.4
2022-08-30T19:16:07.878Z,43.4
2022-08-30T19:21:12.692Z,43.3
2022-08-30T19:26:14.205Z,43.3
2022-08-30T19:31:14.735Z,43.2
2022-08-30T19:36:15.746Z,43.1
2022-08-30T19:41:17.400Z,42.9
2022-08-30T19:46:18.297Z,42.8
2022-08-30T19:51:18.857Z,42.7
2022-08-30T19:56:19.364Z,42.7
2022-08-30T20:01:33.407Z,42.6
2022-08-30T20:06:34.346Z,42.6
2022-08-30T20:11:35.286Z,42.5
2022-08-30T20:16:37.806Z,42.5
2022-08-30T20:21:38.772Z,42.4
2022-08-30T20:26:39.494Z,42.4
2022-08-30T20:31:40.016Z,42.3
2022-08-30T20:36:40.493Z,42.2
2022-08-30T20:41:42.891Z,42.2
2022-08-30T20:46:45.077Z,42.1
2022-08-30T20:51:47.729Z,42.1
2022-08-30T20:56:51.408Z,42.1
2022-08-30T21:01:52.251Z,42
2022-08-30T21:06:55.421Z,41.9
2022-08-30T21:11:56.716Z,41.9
2022-08-30T21:16:57.183Z,41.8
2022-08-30T21:21:57.660Z,41.8
2022-08-30T21:26:58.079Z,41.7
2022-08-30T21:31:58.497Z,41.5
2022-08-30T21:36:58.920Z,41.3
2022-08-30T21:41:59.312Z,41.2
2022-08-30T21:46:59.727Z,41.2
2022-08-30T21:52:00.138Z,41.1
2022-08-30T21:57:00.543Z,41.1
2022-08-30T22:02:01.018Z,41.1
2022-08-30T22:07:01.423Z,41
2022-08-30T22:12:01.851Z,40.9
2022-08-30T22:17:03.241Z,40.9
2022-08-30T22:22:03.760Z,40.9
2022-08-30T22:27:04.214Z,40.8
2022-08-30T22:32:04.941Z,40.8
2022-08-30T22:37:05.404Z,40.7
2022-08-30T22:42:06.044Z,40.6
2022-08-30T22:47:06.507Z,40.6
2022-08-30T22:52:06.982Z,40.6
2022-08-30T22:57:07.415Z,40.5
2022-08-30T23:02:07.893Z,40.4
2022-08-30T23:07:08.319Z,40.4
2022-08-30T23:12:08.724Z,40.4
2022-08-30T23:17:09.407Z,40.3
2022-08-30T23:22:09.813Z,40.2
2022-08-30T23:27:10.213Z,40.2
2022-08-30T23:32:10.633Z,40.2
2022-08-30T23:37:11.915Z,40.1
2022-08-30T23:42:12.322Z,40.1
2022-08-30T23:47:12.770Z,40.1
2022-08-30T23:52:13.413Z,40
2022-08-30T23:57:13.817Z,40
